Time;durP1;ratioP1;P1;durP2;ratioP2;P2;SDS_P1;SDS_P2;PMS_P1;PMS_P2;Temp;Humidity;BMP_temperature;BMP_pressure;BME280_temperature;BME280_humidity;BME280_pressure;Samples;Min_cycle;Max_cycle;Signal;HPM_P1;HPM_P2
2023/01/08 00:00:43;;;;;;;;;4.00;4.00;;;;;11.69;75.28;99933.47;5014308;28;45391;-66
2023/01/08 00:03:08;;;;;;;;;4.67;4.00;;;;;11.70;74.64;99929.00;5038160;28;46199;-68
2023/01/08 00:05:36;;;;;;;;;7.00;4.00;;;;;11.65;74.55;99926.66;5038214;28;45556;-67
2023/01/08 00:08:02;;;;;;;;;8.00;7.00;;;;;11.65;74.74;99924.00;5038133;28;45341;-69
2023/01/08 00:10:27;;;;;;;;;7.00;7.00;;;;;11.63;75.00;99917.94;5034786;28;45680;-69
2023/01/08 00:12:54;;;;;;;;;4.67;3.00;;;;;11.68;75.08;99918.47;5020104;28;47875;-67
2023/01/08 00:15:20;;;;;;;;;4.00;4.00;;;;;11.69;75.20;99917.50;5037702;28;45418;-64
2023/01/08 00:17:45;;;;;;;;;2.00;2.00;;;;;11.65;74.68;99913.34;5025220;28;45440;-65
2023/01/08 00:20:11;;;;;;;;;4.67;4.67;;;;;11.67;74.73;99919.41;5032825;28;45523;-68
2023/01/08 00:22:36;;;;;;;;;6.33;4.67;;;;;11.67;75.08;99907.91;5035788;28;46720;-70
2023/01/08 00:25:03;;;;;;;;;8.00;6.33;;;;;11.65;74.84;99915.16;5037229;28;45407;-71
2023/01/08 00:27:28;;;;;;;;;10.00;6.33;;;;;11.62;74.74;99900.25;5037716;28;45269;-65
2023/01/08 00:29:54;;;;;;;;;7.00;6.00;;;;;11.69;75.02;99912.16;5019913;28;45724;-69
2023/01/08 00:32:19;;;;;;;;;3.67;3.00;;;;;11.62;75.05;99902.94;5019696;28;46489;-67
2023/01/08 00:34:44;;;;;;;;;6.00;4.00;;;;;11.63;75.04;99917.94;5018175;28;45426;-66
2023/01/08 00:37:10;;;;;;;;;6.67;2.67;;;;;11.59;75.00;99921.78;5038273;28;45503;-69
2023/01/08 00:39:35;;;;;;;;;4.67;4.67;;;;;11.66;74.85;99922.19;5036751;28;45305;-72
2023/01/08 00:42:01;;;;;;;;;6.67;6.00;;;;;11.66;75.16;99914.22;5032962;28;46089;-71
2023/01/08 00:44:26;;;;;;;;;6.67;4.67;;;;;11.69;74.86;99904.19;5017332;28;45385;-72
2023/01/08 00:46:51;;;;;;;;;10.33;6.00;;;;;11.73;74.79;99908.34;5027462;28;45375;-73
2023/01/08 00:49:17;;;;;;;;;4.67;4.67;;;;;11.72;74.53;99911.97;5017597;28;45348;-72
2023/01/08 00:51:42;;;;;;;;;6.33;4.00;;;;;11.67;74.68;99903.44;5017292;28;45388;-65
2023/01/08 00:54:10;;;;;;;;;10.67;8.00;;;;;11.66;74.51;99885.75;5017402;28;45361;-69
2023/01/08 00:56:35;;;;;;;;;8.00;4.00;;;;;11.72;74.07;99873.81;5017640;28;45418;-65
2023/01/08 00:59:01;;;;;;;;;5.33;5.33;;;;;11.74;73.93;99878.06;5017852;28;45348;-71
2023/01/08 01:01:26;;;;;;;;;7.67;6.00;;;;;11.69;74.25;99877.53;5028646;28;45515;-69
2023/01/08 01:03:51;;;;;;;;;5.33;5.33;;;;;11.71;74.17;99877.44;5033372;28;45579;-64
2023/01/08 01:06:17;;;;;;;;;5.33;3.67;;;;;11.65;74.03;99877.88;5034101;28;45498;-65
2023/01/08 01:08:43;;;;;;;;;6.00;3.67;;;;;11.68;74.22;99873.19;5031875;28;45546;-70
2023/01/08 01:11:16;;;;;;;;;6.67;4.67;;;;;11.66;74.10;99868.94;5037941;28;46323;-67
2023/01/08 01:13:41;;;;;;;;;7.33;4.67;;;;;11.65;73.98;99857.41;5041891;28;45375;-70
2023/01/08 01:16:07;;;;;;;;;3.00;3.00;;;;;11.71;73.78;99878.28;5036383;28;45371;-65
2023/01/08 01:18:34;;;;;;;;;2.33;2.33;;;;;11.62;73.90;99870.97;5040876;28;45293;-64
2023/01/08 01:21:00;;;;;;;;;6.00;3.00;;;;;11.59;74.06;99865.88;5056188;28;45205;-71
2023/01/08 01:23:25;;;;;;;;;6.00;3.33;;;;;11.61;73.98;99866.59;5032006;28;45301;-66
2023/01/08 01:25:50;;;;;;;;;6.00;3.00;;;;;11.45;73.84;99856.16;5047259;28;45260;-65
2023/01/08 01:28:19;;;;;;;;;8.33;6.67;;;;;11.56;74.03;99871.38;5038767;28;45528;-72
2023/01/08 01:30:44;;;;;;;;;3.33;3.33;;;;;11.51;73.83;99853.09;5025246;28;45579;-73
2023/01/08 01:33:09;;;;;;;;;4.00;4.00;;;;;11.44;74.07;99849.16;5016745;28;45369;-71
2023/01/08 01:35:35;;;;;;;;;4.00;4.00;;;;;11.50;74.15;99874.50;5048603;28;45474;-70
2023/01/08 01:38:01;;;;;;;;;6.00;4.00;;;;;11.44;74.11;99869.59;5018618;28;45590;-70
2023/01/08 01:40:26;;;;;;;;;3.33;3.33;;;;;11.39;73.70;99855.78;5026049;28;46225;-65
2023/01/08 01:42:51;;;;;;;;;6.00;6.00;;;;;11.37;74.21;99863.03;5016879;28;45305;-67
2023/01/08 01:45:23;;;;;;;;;7.00;4.67;;;;;11.42;73.71;99882.16;5038111;28;45442;-65
2023/01/08 01:48:12;;;;;;;;;3.00;3.00;;;;;11.40;73.83;99878.78;5057814;28;45857;-67
2023/01/08 01:50:48;;;;;;;;;6.00;6.00;;;;;11.39;73.81;99861.09;5019620;28;45582;-65
2023/01/08 01:53:34;;;;;;;;;6.00;3.67;;;;;11.43;73.72;99879.41;5015484;28;45314;-65
2023/01/08 01:56:02;;;;;;;;;6.00;3.33;;;;;11.44;73.71;99881.09;5019739;28;45247;-65
2023/01/08 01:58:30;;;;;;;;;7.00;3.67;;;;;11.41;73.46;99881.31;5053859;28;45550;-71
2023/01/08 02:00:59;;;;;;;;;3.00;3.00;;;;;11.34;73.34;99876.56;5034018;28;45524;-72
2023/01/08 02:03:29;;;;;;;;;1.00;1.00;;;;;11.23;73.34;99879.97;5036294;28;45256;-72
2023/01/08 02:06:19;;;;;;;;;5.00;2.00;;;;;11.31;73.46;99887.41;5036026;28;45372;-70
2023/01/08 02:08:51;;;;;;;;;3.00;3.00;;;;;11.29;73.64;99891.97;5016569;28;45222;-67
2023/01/08 02:11:34;;;;;;;;;3.00;3.00;;;;;11.31;73.22;99895.38;5037212;28;46127;-72
2023/01/08 02:14:16;;;;;;;;;7.00;4.00;;;;;11.32;73.15;99897.94;5018125;28;45540;-68
2023/01/08 02:16:49;;;;;;;;;3.00;3.00;;;;;11.36;73.22;99901.25;5005026;28;45345;-68
2023/01/08 02:19:54;;;;;;;;;2.00;1.67;;;;;11.39;72.78;99898.38;5020084;28;45390;-69
2023/01/08 02:22:35;;;;;;;;;2.67;2.67;;;;;11.43;73.07;99899.84;5033979;28;45738;-68
2023/01/08 02:25:26;;;;;;;;;3.00;3.00;;;;;11.44;72.46;99881.09;5035807;28;45910;-69
2023/01/08 02:27:56;;;;;;;;;3.00;3.00;;;;;11.43;72.31;99883.88;5032654;28;45284;-67
2023/01/08 02:30:22;;;;;;;;;5.00;3.00;;;;;11.41;72.71;99885.81;5024307;28;45465;-68
2023/01/08 02:32:47;;;;;;;;;4.67;3.67;;;;;11.42;72.28;99898.16;5036048;28;46406;-69
2023/01/08 02:35:12;;;;;;;;;4.00;3.00;;;;;11.44;72.73;99897.06;5035755;28;45377;-72
2023/01/08 02:37:39;;;;;;;;;6.00;4.00;;;;;11.44;72.47;99894.41;5035971;28;45674;-72
2023/01/08 02:40:19;;;;;;;;;4.00;2.67;;;;;11.37;72.88;99879.84;5036433;28;45273;-67
2023/01/08 02:43:08;;;;;;;;;6.00;3.00;;;;;11.41;73.11;99883.13;5035725;28;46209;-69
2023/01/08 02:45:47;;;;;;;;;1.33;1.33;;;;;11.39;72.94;99893.06;5005719;28;46150;-69
2023/01/08 02:48:36;;;;;;;;;1.00;1.00;;;;;11.37;73.32;99885.16;5032432;28;45244;-70
2023/01/08 02:51:12;;;;;;;;;2.00;0.67;;;;;11.34;73.15;99887.22;5052797;28;45530;-69
2023/01/08 02:53:46;;;;;;;;;7.00;3.67;;;;;11.25;73.41;99879.84;5055992;28;45636;-67
2023/01/08 02:56:16;;;;;;;;;1.00;1.00;;;;;11.22;73.34;99871.13;5018394;28;45299;-70
2023/01/08 02:58:45;;;;;;;;;3.00;1.00;;;;;11.18;74.01;99872.28;5016258;28;45304;-70
2023/01/08 03:01:12;;;;;;;;;1.67;1.67;;;;;11.26;73.75;99881.56;5029427;28;45628;-69
2023/01/08 03:03:42;;;;;;;;;2.00;2.00;;;;;11.24;73.78;99879.00;4999971;28;45741;-68
2023/01/08 03:06:11;;;;;;;;;3.00;2.00;;;;;11.20;73.96;99873.06;5013476;28;45293;-70
2023/01/08 03:08:44;;;;;;;;;4.00;2.67;;;;;11.25;73.77;99871.88;5002510;28;45432;-68
2023/01/08 03:11:13;;;;;;;;;3.00;1.00;;;;;11.28;74.08;99869.84;5058622;28;45467;-68
2023/01/08 03:13:59;;;;;;;;;2.00;2.00;;;;;11.28;73.90;99864.50;5049553;28;46702;-66
2023/01/08 03:16:41;;;;;;;;;3.00;2.00;;;;;11.32;73.68;99865.13;5038935;28;45298;-70
2023/01/08 03:19:21;;;;;;;;;4.00;1.00;;;;;11.33;73.76;99859.75;5028254;28;45428;-68
2023/01/08 03:21:50;;;;;;;;;7.00;3.00;;;;;11.24;73.63;99844.41;5035912;28;46268;-71
2023/01/08 03:24:21;;;;;;;;;2.00;2.00;;;;;11.28;73.74;99858.34;5038437;28;45410;-70
2023/01/08 03:26:48;;;;;;;;;2.67;1.00;;;;;11.33;73.99;99856.19;5018748;28;45309;-67
2023/01/08 03:29:18;;;;;;;;;2.67;2.67;;;;;11.31;74.04;99856.31;5004784;28;45271;-71
2023/01/08 03:31:46;;;;;;;;;0.00;0.00;;;;;11.36;73.81;99858.66;5040590;28;45831;-65
2023/01/08 03:34:14;;;;;;;;;1.33;1.33;;;;;11.37;73.70;99858.56;5048815;28;46126;-64
2023/01/08 03:36:45;;;;;;;;;2.00;2.00;;;;;11.18;74.14;99829.69;5032793;28;45695;-67
2023/01/08 03:39:23;;;;;;;;;4.00;2.67;;;;;11.35;74.04;99859.63;5031063;28;45443;-64
2023/01/08 03:41:52;;;;;;;;;3.00;1.67;;;;;11.30;73.72;99845.78;5019281;28;45163;-66
2023/01/08 03:44:17;;;;;;;;;1.00;1.00;;;;;11.21;73.75;99826.00;5038942;28;45466;-68
2023/01/08 03:46:51;;;;;;;;;2.00;2.00;;;;;11.27;73.49;99840.66;5039044;28;45403;-66
2023/01/08 03:49:20;;;;;;;;;2.67;0.67;;;;;11.28;74.18;99842.38;5021400;28;45452;-68
2023/01/08 03:51:46;;;;;;;;;2.00;2.00;;;;;11.30;73.85;99848.44;5021106;28;45561;-65
2023/01/08 03:54:16;;;;;;;;;1.33;1.33;;;;;11.17;74.01;99836.00;5038432;28;45355;-68
2023/01/08 03:56:41;;;;;;;;;1.67;1.67;;;;;11.20;74.00;99843.78;5022229;28;45268;-68
2023/01/08 03:59:07;;;;;;;;;3.67;2.67;;;;;11.22;74.10;99838.34;5038176;28;45458;-69
2023/01/08 04:01:32;;;;;;;;;3.00;2.00;;;;;11.24;74.36;99836.41;5038026;28;45329;-67
2023/01/08 04:03:58;;;;;;;;;1.00;1.00;;;;;11.29;74.20;99839.59;5037295;28;45401;-66
2023/01/08 04:06:23;;;;;;;;;2.00;1.67;;;;;11.32;73.72;99838.53;5038399;28;45350;-70
2023/01/08 04:08:49;;;;;;;;;2.33;1.67;;;;;11.34;73.54;99826.84;5023962;28;46930;-69
2023/01/08 04:11:14;;;;;;;;;2.33;1.00;;;;;11.32;73.49;99812.75;5050095;28;45292;-72
2023/01/08 04:13:39;;;;;;;;;1.33;1.00;;;;;11.29;73.86;99810.31;5057566;28;45586;-69
2023/01/08 04:16:06;;;;;;;;;1.67;1.00;;;;;11.10;73.71;99792.16;5056819;28;45248;-69
2023/01/08 04:18:32;;;;;;;;;2.00;2.00;;;;;11.17;73.94;99814.69;5058080;28;45370;-63
2023/01/08 04:20:58;;;;;;;;;3.67;1.33;;;;;11.15;73.87;99805.97;5041088;28;45521;-65
2023/01/08 04:23:25;;;;;;;;;1.00;1.00;;;;;10.99;73.52;99778.75;5044288;28;46596;-68
2023/01/08 04:25:50;;;;;;;;;7.00;1.33;;;;;11.10;73.72;99786.00;5033827;28;46142;-72
2023/01/08 04:28:16;;;;;;;;;2.00;1.00;;;;;11.16;73.86;99790.84;5002432;28;45336;-69
2023/01/08 04:30:41;;;;;;;;;1.33;1.33;;;;;11.16;73.82;99785.53;5018050;28;45519;-72
2023/01/08 04:33:06;;;;;;;;;2.00;0.00;;;;;11.16;73.93;99786.38;5037260;28;45471;-71
2023/01/08 04:35:32;;;;;;;;;0.67;0.67;;;;;11.01;73.97;99766.19;5018932;28;60781;-67
2023/01/08 04:37:57;;;;;;;;;6.00;1.67;;;;;11.17;74.17;99782.75;5027833;28;45506;-69
2023/01/08 04:40:22;;;;;;;;;1.00;1.00;;;;;11.17;74.23;99768.59;5002729;28;45388;-64
2023/01/08 04:42:48;;;;;;;;;2.33;1.00;;;;;11.13;74.64;99773.31;5006688;28;47576;-71
2023/01/08 04:45:13;;;;;;;;;3.00;2.00;;;;;11.12;74.54;99773.41;5035561;28;45400;-70
2023/01/08 04:47:39;;;;;;;;;1.00;1.00;;;;;11.04;75.36;99760.66;5019703;28;45350;-65
2023/01/08 04:50:05;;;;;;;;;0.33;0.33;;;;;10.92;76.03;99729.59;5037654;28;45372;-67
2023/01/08 04:52:30;;;;;;;;;0.00;0.00;;;;;11.02;75.83;99761.72;5037986;28;46154;-66
2023/01/08 04:54:55;;;;;;;;;2.33;1.00;;;;;11.02;75.79;99762.56;5043627;28;45233;-68
2023/01/08 04:57:21;;;;;;;;;2.00;1.00;;;;;10.95;75.91;99758.66;5019424;28;45235;-69
2023/01/08 04:59:46;;;;;;;;;1.33;1.33;;;;;11.00;75.65;99753.00;5031232;28;45489;-67
2023/01/08 05:02:11;;;;;;;;;2.33;1.33;;;;;10.97;75.39;99754.06;5041140;28;45360;-67
2023/01/08 05:04:37;;;;;;;;;1.67;1.00;;;;;10.98;75.42;99754.94;5041579;28;46734;-71
2023/01/08 05:07:04;;;;;;;;;0.00;0.00;;;;;10.97;75.32;99759.41;5057567;28;45396;-71
2023/01/08 05:09:29;;;;;;;;;2.00;1.33;;;;;10.91;75.38;99752.69;5052408;28;45908;-69
2023/01/08 05:11:55;;;;;;;;;1.67;1.67;;;;;10.86;76.07;99741.53;5027107;28;45303;-68
2023/01/08 05:14:20;;;;;;;;;0.33;0.33;;;;;10.76;76.02;99728.97;5055134;28;45460;-70
2023/01/08 05:16:46;;;;;;;;;0.00;0.00;;;;;10.86;76.05;99743.34;5056989;28;45462;-68
2023/01/08 05:19:12;;;;;;;;;2.33;1.00;;;;;10.83;75.35;99746.22;5018791;28;45445;-63
2023/01/08 05:21:37;;;;;;;;;2.33;1.00;;;;;10.86;75.55;99746.84;5020097;28;45435;-67
2023/01/08 05:24:03;;;;;;;;;0.67;0.00;;;;;10.85;75.10;99749.63;5036834;28;45427;-69
2023/01/08 05:26:28;;;;;;;;;0.67;0.67;;;;;10.84;75.45;99738.13;5053488;28;45442;-67
2023/01/08 05:28:54;;;;;;;;;2.00;0.33;;;;;10.84;75.12;99734.63;5056633;28;45653;-72
2023/01/08 05:31:19;;;;;;;;;1.00;1.00;;;;;10.86;75.53;99730.03;5056712;28;45374;-68
2023/01/08 05:33:45;;;;;;;;;1.67;1.00;;;;;10.91;75.18;99734.06;5037230;28;45469;-69
2023/01/08 05:36:11;;;;;;;;;0.00;0.00;;;;;10.88;75.86;99739.59;5034907;28;45330;-69
2023/01/08 05:38:37;;;;;;;;;1.00;0.00;;;;;10.84;76.14;99747.91;5048745;28;45209;-66
2023/01/08 05:41:04;;;;;;;;;0.00;0.00;;;;;10.81;77.38;99774.75;5057135;28;45288;-67
2023/01/08 05:43:29;;;;;;;;;0.00;0.00;;;;;10.62;77.31;99769.84;5046363;28;45175;-63
2023/01/08 05:45:58;;;;;;;;;0.00;0.00;;;;;10.37;76.76;99786.63;5037229;28;45366;-63
2023/01/08 05:48:24;;;;;;;;;0.00;0.00;;;;;10.24;77.45;99783.09;5036982;28;45399;-72
2023/01/08 05:50:49;;;;;;;;;0.00;0.00;;;;;10.05;75.71;99768.38;5005363;28;47242;-72
2023/01/08 05:53:15;;;;;;;;;0.00;0.00;;;;;10.04;74.04;99785.25;5005200;28;45443;-70
2023/01/08 05:55:40;;;;;;;;;0.00;0.00;;;;;9.92;73.03;99769.28;5016713;28;45346;-71
2023/01/08 05:58:05;;;;;;;;;0.00;0.00;;;;;9.90;73.74;99781.81;5024816;28;46891;-74
2023/01/08 06:00:33;;;;;;;;;0.00;0.00;;;;;9.78;74.45;99756.91;5035134;28;45494;-72
2023/01/08 06:02:58;;;;;;;;;0.00;0.00;;;;;9.78;72.27;99756.06;5043288;28;45458;-71
2023/01/08 06:05:23;;;;;;;;;0.00;0.00;;;;;9.65;71.29;99753.38;5056085;28;45316;-72
2023/01/08 06:07:49;;;;;;;;;0.00;0.00;;;;;9.65;72.48;99756.88;5055881;28;45546;-70
2023/01/08 06:10:14;;;;;;;;;1.00;0.00;;;;;9.62;72.86;99753.53;5018399;28;54271;-67
2023/01/08 06:12:39;;;;;;;;;1.00;0.00;;;;;9.50;71.37;99741.91;5036710;28;45565;-70
2023/01/08 06:15:05;;;;;;;;;0.33;0.00;;;;;9.55;72.41;99754.91;5051616;28;45908;-68
2023/01/08 06:17:31;;;;;;;;;0.00;0.00;;;;;9.56;72.48;99767.22;5035287;28;45822;-67
2023/01/08 06:19:57;;;;;;;;;0.25;0.00;;;;;9.54;72.77;99775.28;5055435;28;46069;-68
2023/01/08 06:22:22;;;;;;;;;1.00;0.00;;;;;9.47;71.25;99758.06;5038064;28;45446;-70
2023/01/08 06:24:47;;;;;;;;;0.00;0.00;;;;;9.44;72.12;99764.41;5053997;28;45419;-68
2023/01/08 06:27:13;;;;;;;;;0.00;0.00;;;;;9.40;71.25;99770.88;5016721;28;45423;-66
2023/01/08 06:29:38;;;;;;;;;0.00;0.00;;;;;9.35;72.03;99766.78;5029467;28;45994;-67
2023/01/08 06:32:04;;;;;;;;;0.00;0.00;;;;;9.27;73.69;99761.16;5028487;28;45947;-66
2023/01/08 06:34:30;;;;;;;;;0.00;0.00;;;;;9.33;72.90;99774.84;5056736;28;45497;-71
2023/01/08 06:36:55;;;;;;;;;0.00;0.00;;;;;9.28;73.97;99763.69;5056375;28;45478;-70
2023/01/08 06:39:21;;;;;;;;;0.00;0.00;;;;;9.26;73.92;99770.91;5058881;28;45352;-67
2023/01/08 06:41:46;;;;;;;;;0.00;0.00;;;;;9.26;74.33;99773.56;5041558;28;45333;-70
2023/01/08 06:44:12;;;;;;;;;0.00;0.00;;;;;9.21;75.23;99777.44;5040877;28;54090;-67
2023/01/08 06:46:39;;;;;;;;;0.25;0.00;;;;;9.18;75.98;99777.66;5040765;28;45617;-71
2023/01/08 06:49:07;;;;;;;;;0.00;0.00;;;;;9.21;74.78;99783.59;5040277;28;45234;-65
2023/01/08 06:51:32;;;;;;;;;0.00;0.00;;;;;9.19;75.82;99785.50;5018457;28;45329;-67
2023/01/08 06:53:58;;;;;;;;;2.50;0.00;;;;;9.16;75.68;99780.41;5019243;28;45457;-72
2023/01/08 06:56:23;;;;;;;;;0.00;0.00;;;;;9.08;75.92;99778.22;5037375;28;45397;-71
2023/01/08 06:58:48;;;;;;;;;0.00;0.00;;;;;9.08;76.79;99772.91;5038925;28;46400;-70
2023/01/08 07:01:15;;;;;;;;;1.00;0.00;;;;;9.13;76.50;99785.91;5044764;28;45427;-72
2023/01/08 07:03:41;;;;;;;;;0.00;0.00;;;;;9.07;77.19;99776.50;5039366;28;45264;-66
2023/01/08 07:06:06;;;;;;;;;0.00;0.00;;;;;9.10;77.21;99778.97;5050731;28;45391;-67
2023/01/08 07:08:32;;;;;;;;;0.75;0.00;;;;;9.09;77.54;99785.22;5041271;28;47214;-69
2023/01/08 07:11:02;;;;;;;;;0.00;0.00;;;;;8.99;78.44;99764.69;5059817;28;45286;-67
2023/01/08 07:13:28;;;;;;;;;0.00;0.00;;;;;9.02;78.75;99778.63;5041103;28;45517;-67
2023/01/08 07:15:54;;;;;;;;;0.00;0.00;;;;;9.08;79.12;99777.34;5024245;28;45564;-63
2023/01/08 07:18:20;;;;;;;;;0.00;0.00;;;;;9.05;78.48;99769.59;5035466;28;46010;-66
2023/01/08 07:20:47;;;;;;;;;0.00;0.00;;;;;9.07;80.01;99780.97;5038574;28;45922;-66
2023/01/08 07:23:13;;;;;;;;;0.00;0.00;;;;;9.08;79.14;99782.66;5038744;28;45352;-63
2023/01/08 07:25:38;;;;;;;;;0.00;0.00;;;;;9.10;79.71;99791.38;5041276;28;46229;-63
2023/01/08 07:28:05;;;;;;;;;0.00;0.00;;;;;9.00;79.27;99775.22;5059234;28;45904;-65
2023/01/08 07:30:30;;;;;;;;;0.00;0.00;;;;;9.04;79.54;99782.00;5058530;28;45377;-69
2023/01/08 07:33:00;;;;;;;;;0.00;0.00;;;;;9.14;79.29;99787.59;5042905;28;45476;-69
2023/01/08 07:35:25;;;;;;;;;0.00;0.00;;;;;9.08;80.67;99777.34;5033732;28;45467;-70
2023/01/08 07:37:51;;;;;;;;;0.00;0.00;;;;;9.18;79.92;99783.81;5027089;28;46071;-72
2023/01/08 07:40:16;;;;;;;;;0.00;0.00;;;;;9.19;79.86;99777.53;5013762;28;45249;-72
2023/01/08 07:42:42;;;;;;;;;1.75;0.00;;;;;9.10;80.30;99756.91;5005036;28;45187;-70
2023/01/08 07:45:07;;;;;;;;;2.00;0.25;;;;;9.22;80.74;99771.19;5001316;28;45479;-69
2023/01/08 07:47:36;;;;;;;;;0.25;0.00;;;;;9.22;80.28;99758.78;5024346;28;46283;-71
2023/01/08 07:50:01;;;;;;;;;0.00;0.00;;;;;9.26;80.97;99770.91;5058126;28;45386;-73
2023/01/08 07:52:27;;;;;;;;;0.00;0.00;;;;;9.28;80.44;99761.06;5042134;28;45481;-66
2023/01/08 07:54:53;;;;;;;;;0.00;0.00;;;;;9.31;79.87;99760.84;5036525;28;45594;-71
2023/01/08 07:57:18;;;;;;;;;0.00;0.00;;;;;9.24;79.58;99753.34;5038642;28;46396;-72
2023/01/08 07:59:44;;;;;;;;;0.67;0.00;;;;;9.35;79.66;99762.34;5058219;28;45317;-64
2023/01/08 08:02:12;;;;;;;;;1.25;0.00;;;;;9.28;79.23;99750.44;5057644;28;45504;-65
2023/01/08 08:04:37;;;;;;;;;0.00;0.00;;;;;9.34;80.42;99757.13;5037310;28;45462;-68
2023/01/08 08:07:03;;;;;;;;;0.00;0.00;;;;;9.41;80.57;99763.78;5048391;28;45320;-68
2023/01/08 08:09:29;;;;;;;;;3.00;0.00;;;;;9.21;79.30;99730.53;5023701;28;45683;-66
2023/01/08 08:11:55;;;;;;;;;0.00;0.00;;;;;9.44;80.20;99753.81;5009497;28;45527;-67
2023/01/08 08:14:20;;;;;;;;;1.00;0.00;;;;;9.48;79.93;99754.44;4999878;28;45422;-65
2023/01/08 08:16:45;;;;;;;;;1.00;1.00;;;;;9.40;79.36;99736.38;5017783;28;46107;-67
2023/01/08 08:19:11;;;;;;;;;0.00;0.00;;;;;9.38;79.34;99727.66;5018224;28;45488;-65
2023/01/08 08:21:37;;;;;;;;;0.00;0.00;;;;;9.41;79.44;99723.97;5018427;28;45487;-65
2023/01/08 08:24:03;;;;;;;;;1.00;1.00;;;;;9.60;79.58;99744.84;5018930;28;45341;-71
2023/01/08 08:26:29;;;;;;;;;0.00;0.00;;;;;9.61;79.73;99741.22;5023690;28;46343;-70
2023/01/08 08:28:54;;;;;;;;;2.00;1.00;;;;;9.64;78.39;99727.78;5038785;28;45339;-70
2023/01/08 08:31:19;;;;;;;;;1.00;1.00;;;;;9.70;78.57;99732.66;5038137;28;45358;-66
2023/01/08 08:33:45;;;;;;;;;0.00;0.00;;;;;9.63;79.33;99718.06;5038521;28;45387;-70
2023/01/08 08:36:10;;;;;;;;;1.00;1.00;;;;;9.71;79.25;99731.72;5038006;28;45645;-69
2023/01/08 08:38:37;;;;;;;;;0.67;0.33;;;;;9.70;79.21;99732.66;5035816;28;45323;-69
2023/01/08 08:41:02;;;;;;;;;1.67;1.67;;;;;9.69;79.13;99726.50;5037327;28;45401;-70
2023/01/08 08:43:27;;;;;;;;;0.33;0.00;;;;;9.59;79.22;99708.63;5037720;28;45240;-67
2023/01/08 08:45:55;;;;;;;;;0.00;0.00;;;;;9.66;78.30;99716.09;5037301;28;46154;-68
2023/01/08 08:48:21;;;;;;;;;0.25;0.25;;;;;9.68;79.51;99723.94;5038233;28;45436;-66
2023/01/08 08:50:46;;;;;;;;;0.00;0.00;;;;;9.65;78.97;99717.06;5038322;28;45943;-72
2023/01/08 08:53:11;;;;;;;;;0.75;0.75;;;;;9.73;79.36;99711.22;5035478;28;45435;-65
2023/01/08 08:55:40;;;;;;;;;1.75;0.75;;;;;9.73;78.85;99712.06;5026330;28;45336;-67
2023/01/08 08:58:11;;;;;;;;;2.00;0.00;;;;;9.75;79.20;99706.66;5037603;28;45494;-68
2023/01/08 09:00:37;;;;;;;;;0.33;0.33;;;;;9.54;79.31;99657.66;5036627;28;45383;-69
2023/01/08 09:03:03;;;;;;;;;0.33;0.33;;;;;9.77;78.89;99696.81;5025863;28;45427;-67
2023/01/08 09:05:29;;;;;;;;;1.75;1.00;;;;;9.89;78.88;99711.03;5018366;28;45522;-67
2023/01/08 09:07:55;;;;;;;;;0.00;0.00;;;;;9.90;78.74;99691.50;5037203;28;45347;-66
2023/01/08 09:10:21;;;;;;;;;0.75;0.75;;;;;9.98;77.87;99705.97;5037404;28;45528;-71
2023/01/08 09:12:46;;;;;;;;;0.67;0.67;;;;;9.94;78.07;99704.47;5037355;28;45305;-68
2023/01/08 09:15:12;;;;;;;;;2.00;0.50;;;;;9.93;77.39;99700.13;5037285;28;45351;-68
2023/01/08 09:17:37;;;;;;;;;0.00;0.00;;;;;9.94;77.89;99703.63;5037258;28;45270;-69
2023/01/08 09:20:04;;;;;;;;;1.00;1.00;;;;;9.91;77.45;99699.38;5016611;28;45381;-65
2023/01/08 09:22:30;;;;;;;;;0.00;0.00;;;;;9.94;76.73;99706.28;5032061;28;45173;-65
2023/01/08 09:24:55;;;;;;;;;1.00;0.00;;;;;10.00;77.26;99709.34;5036527;28;45987;-67
2023/01/08 09:27:20;;;;;;;;;2.00;1.00;;;;;10.08;77.03;99708.00;5038508;28;45459;-68
2023/01/08 09:29:46;;;;;;;;;0.00;0.00;;;;;10.16;76.51;99708.34;5038237;28;45454;-69
2023/01/08 09:32:11;;;;;;;;;1.00;1.00;;;;;10.22;76.90;99702.63;5040138;28;46741;-71
2023/01/08 09:34:37;;;;;;;;;0.67;0.67;;;;;10.15;76.06;99690.66;5037029;28;46350;-66
2023/01/08 09:37:03;;;;;;;;;0.00;0.00;;;;;10.16;75.09;99681.78;5030826;28;45656;-73
2023/01/08 09:39:29;;;;;;;;;0.67;0.67;;;;;10.33;75.22;99710.72;4994883;28;45508;-70
2023/01/08 09:41:57;;;;;;;;;0.00;0.00;;;;;10.23;75.00;99683.91;5039948;28;45500;-70
2023/01/08 09:44:26;;;;;;;;;1.33;0.00;;;;;10.24;74.74;99693.59;5035765;28;45293;-67
2023/01/08 09:46:54;;;;;;;;;0.00;0.00;;;;;10.29;74.33;99710.09;5035603;28;45467;-65
2023/01/08 09:49:27;;;;;;;;;0.00;0.00;;;;;10.31;74.73;99707.31;5035848;28;45367;-66
2023/01/08 09:51:52;;;;;;;;;0.00;0.00;;;;;10.26;73.96;99683.69;5013080;28;45514;-63
2023/01/08 09:54:26;;;;;;;;;0.00;0.00;;;;;10.41;73.97;99705.69;5015913;28;45562;-68
2023/01/08 09:56:52;;;;;;;;;4.00;1.00;;;;;10.41;74.08;99703.03;5016470;28;45479;-71
2023/01/08 09:59:18;;;;;;;;;0.67;0.00;;;;;10.44;74.04;99708.16;5000870;28;45495;-69
2023/01/08 10:01:45;;;;;;;;;0.00;0.00;;;;;10.47;73.73;99713.25;4998331;28;47147;-63
2023/01/08 10:04:28;;;;;;;;;0.00;0.00;;;;;10.56;74.03;99711.78;5014830;28;45221;-65
2023/01/08 10:07:04;;;;;;;;;2.00;0.00;;;;;10.66;73.37;99706.66;5022084;28;45432;-64
2023/01/08 10:09:31;;;;;;;;;1.67;0.33;;;;;10.68;72.81;99710.03;5015927;28;45385;-65
2023/01/08 10:12:01;;;;;;;;;0.00;0.00;;;;;10.69;73.38;99706.47;5032634;28;45443;-69
2023/01/08 10:14:46;;;;;;;;;0.00;0.00;;;;;10.72;73.43;99695.59;5036273;28;46049;-72
2023/01/08 10:17:26;;;;;;;;;0.00;0.00;;;;;10.70;72.90;99692.19;5036472;28;45398;-63
2023/01/08 10:19:52;;;;;;;;;0.00;0.00;;;;;10.68;72.80;99699.41;5037169;28;45525;-65
2023/01/08 10:22:20;;;;;;;;;2.00;0.67;;;;;10.68;73.33;99688.78;5020078;28;45391;-70
2023/01/08 10:24:47;;;;;;;;;0.00;0.00;;;;;10.71;71.75;99689.44;5023535;28;45399;-69
2023/01/08 10:27:16;;;;;;;;;2.00;0.00;;;;;10.73;72.66;99689.31;5036142;28;45348;-70
2023/01/08 10:29:42;;;;;;;;;0.00;0.00;;;;;10.69;72.39;99682.53;5036706;28;45373;-70
2023/01/08 10:32:13;;;;;;;;;1.00;0.00;;;;;10.82;72.54;99692.19;5021740;28;45555;-67
2023/01/08 10:34:49;;;;;;;;;0.00;0.00;;;;;10.93;71.89;99699.38;5033844;28;46069;-62
2023/01/08 10:37:41;;;;;;;;;1.67;0.00;;;;;10.98;72.15;99691.94;5033927;28;45183;-63
2023/01/08 10:40:43;;;;;;;;;2.00;0.00;;;;;11.00;70.65;99678.50;5037693;28;45606;-68
2023/01/08 10:43:24;;;;;;;;;1.33;1.33;;;;;10.96;71.41;99688.53;5032104;28;45474;-65
2023/01/08 10:45:58;;;;;;;;;0.33;0.33;;;;;10.99;71.95;99684.78;5034423;28;46216;-67
2023/01/08 10:48:31;;;;;;;;;0.00;0.00;;;;;11.08;71.54;99674.34;5037469;28;45407;-70
2023/01/08 10:51:24;;;;;;;;;3.00;1.00;;;;;11.15;70.70;99664.09;5015909;28;45415;-71
2023/01/08 10:53:51;;;;;;;;;1.33;0.33;;;;;11.20;70.77;99667.28;5020662;28;45574;-69
2023/01/08 10:56:30;;;;;;;;;1.33;0.00;;;;;11.31;70.23;99667.31;5019048;28;45555;-70
2023/01/08 10:58:56;;;;;;;;;1.00;1.00;;;;;11.34;69.89;99656.47;5031539;28;45303;-68
2023/01/08 11:01:27;;;;;;;;;2.00;0.33;;;;;11.39;70.16;99662.28;5029344;28;45344;-71
2023/01/08 11:04:01;;;;;;;;;2.00;1.00;;;;;11.42;70.04;99642.56;5031784;28;45404;-73
2023/01/08 11:06:30;;;;;;;;;1.00;0.00;;;;;11.54;68.85;99657.63;5014989;28;46607;-73
2023/01/08 11:09:14;;;;;;;;;0.00;0.00;;;;;11.49;68.81;99646.47;5049047;28;45633;-70
2023/01/08 11:11:40;;;;;;;;;0.67;0.67;;;;;11.61;68.72;99650.88;5036661;28;45253;-74
2023/01/08 11:14:22;;;;;;;;;1.67;1.00;;;;;11.74;67.92;99635.69;5036276;28;45426;-71
2023/01/08 11:16:49;;;;;;;;;1.67;1.00;;;;;11.60;67.51;99621.72;5016528;28;47701;-72
2023/01/08 11:19:27;;;;;;;;;1.00;1.00;;;;;11.65;69.25;99620.38;5035418;28;45466;-71
2023/01/08 11:22:19;;;;;;;;;0.33;0.33;;;;;11.78;67.75;99621.16;5017080;28;45277;-68
2023/01/08 11:24:50;;;;;;;;;0.67;0.33;;;;;11.81;66.61;99602.28;5038454;28;45506;-66
2023/01/08 11:27:32;;;;;;;;;0.00;0.00;;;;;11.91;66.58;99591.78;5039564;28;46174;-74
2023/01/08 11:30:18;;;;;;;;;2.00;1.00;;;;;11.93;67.29;99599.66;5042444;28;45416;-72
2023/01/08 11:33:08;;;;;;;;;3.00;2.00;;;;;12.10;66.65;99601.84;5036249;28;45514;-70
2023/01/08 11:35:42;;;;;;;;;3.00;0.00;;;;;11.98;66.11;99597.47;5017311;28;45431;-69
2023/01/08 11:38:14;;;;;;;;;1.33;0.33;;;;;11.96;66.29;99580.75;5040327;28;47410;-72
2023/01/08 11:40:54;;;;;;;;;0.33;0.33;;;;;12.07;65.97;99570.13;5018230;28;45751;-68
2023/01/08 11:43:53;;;;;;;;;0.67;0.67;;;;;12.17;65.29;99563.09;5014753;28;45381;-67